Time;durP1;ratioP1;P1;durP2;ratioP2;P2;SDS_P1;SDS_P2;PMS_P1;PMS_P2;Temp;Humidity;BMP_temperature;BMP_pressure;BME280_temperature;BME280_humidity;BME280_pressure;Samples;Min_cycle;Max_cycle;Signal;HPM_P1;HPM_P2
2024/01/29 00:03:21;;;;;;;1999.90;999.90;;;;;;;3.38;91.02;102409.31;10337243;28;20050;-65
2024/01/29 00:08:23;;;;;;;1999.90;999.90;;;;;;;3.31;90.13;102405.88;10336572;28;20078;-65
2024/01/29 00:13:26;;;;;;;1999.90;999.90;;;;;;;3.26;91.30;102389.50;10336929;28;20046;-65
2024/01/29 00:18:28;;;;;;;1999.90;999.90;;;;;;;3.86;87.48;102403.16;10336715;28;20050;-65
2024/01/29 00:23:31;;;;;;;1999.90;999.90;;;;;;;3.54;87.48;102395.47;10335797;28;20054;-65
2024/01/29 00:28:33;;;;;;;1999.90;999.90;;;;;;;3.68;87.42;102393.72;10336302;28;20077;-65
2024/01/29 00:33:36;;;;;;;1999.90;999.90;;;;;;;3.47;87.95;102386.00;10336079;28;20134;-65
2024/01/29 00:38:38;;;;;;;1999.90;999.90;;;;;;;3.21;89.62;102383.47;10335879;28;20133;-65
2024/01/29 00:43:41;;;;;;;1999.90;999.90;;;;;;;3.35;90.72;102389.50;10335718;28;20057;-65
2024/01/29 00:48:43;;;;;;;1999.90;999.90;;;;;;;3.17;90.53;102391.22;10334952;28;20482;-65
2024/01/29 00:53:47;;;;;;;1999.90;999.90;;;;;;;3.13;91.69;102394.69;10334680;28;20506;-65
2024/01/29 00:58:49;;;;;;;1999.90;999.90;;;;;;;3.01;92.20;102397.28;10318212;28;20077;-65
2024/01/29 01:03:52;;;;;;;1999.90;999.90;;;;;;;3.38;92.04;102402.44;10333924;28;20050;-65
2024/01/29 01:08:54;;;;;;;1999.90;999.90;;;;;;;3.40;91.45;102402.44;10333848;28;20548;-65
2024/01/29 01:13:57;;;;;;;1999.90;999.90;;;;;;;3.47;90.95;102397.22;10334228;28;20105;-65
2024/01/29 01:18:59;;;;;;;1999.90;999.90;;;;;;;3.62;87.71;102401.50;10334750;28;20074;-65
2024/01/29 01:24:02;;;;;;;1999.90;999.90;;;;;;;3.39;89.49;102401.56;10333927;28;20515;-65
2024/01/29 01:29:04;;;;;;;1999.90;999.90;;;;;;;3.55;89.00;102412.75;10333842;28;20403;-65
2024/01/29 01:34:06;;;;;;;1999.90;999.90;;;;;;;3.53;88.91;102414.47;10333755;28;20141;-67
2024/01/29 01:39:09;;;;;;;1999.90;999.90;;;;;;;4.07;84.78;102412.56;10333748;28;20137;-66
2024/01/29 01:44:11;;;;;;;1999.90;999.90;;;;;;;3.78;86.21;102420.44;10334166;28;20061;-65
2024/01/29 01:49:15;;;;;;;1999.90;999.90;;;;;;;4.18;84.60;102420.28;10334084;28;20078;-65
2024/01/29 01:54:18;;;;;;;1999.90;999.90;;;;;;;4.01;86.45;102414.34;10333045;28;20050;-65
2024/01/29 01:59:21;;;;;;;1999.90;999.90;;;;;;;4.16;85.28;102408.22;10333381;28;20490;-65
2024/01/29 02:04:23;;;;;;;1999.90;999.90;;;;;;;4.44;83.61;102402.00;10333128;28;20470;-65
2024/01/29 02:09:26;;;;;;;1999.90;999.90;;;;;;;4.41;84.10;102412.41;10348045;23;20133;-66
2024/01/29 02:14:29;;;;;;;1999.90;999.90;;;;;;;4.28;83.91;102415.94;10316622;28;20047;-66
2024/01/29 02:19:31;;;;;;;1999.90;999.90;;;;;;;4.35;83.39;102407.25;10336801;28;20078;-66
2024/01/29 02:24:34;;;;;;;1999.90;999.90;;;;;;;4.47;83.38;102414.09;10340694;28;20478;-66
2024/01/29 02:29:37;;;;;;;1999.90;999.90;;;;;;;4.50;83.49;102415.81;10341002;28;20053;-66
2024/01/29 02:34:39;;;;;;;1999.90;999.90;;;;;;;4.43;82.67;102412.41;10340905;28;20053;-66
2024/01/29 02:39:42;;;;;;;1999.90;999.90;;;;;;;4.46;83.13;102420.16;10340082;28;20485;-66
2024/01/29 02:44:46;;;;;;;1999.90;999.90;;;;;;;4.19;85.56;102423.78;10339920;28;20054;-66
2024/01/29 02:49:48;;;;;;;1999.90;999.90;;;;;;;4.32;85.16;102417.66;10339664;28;20431;-66
2024/01/29 02:54:51;;;;;;;1999.90;999.90;;;;;;;4.52;84.30;102416.66;10307021;28;20054;-66
2024/01/29 02:59:54;;;;;;;1999.90;999.90;;;;;;;4.44;83.80;102409.78;10339910;28;20063;-66
2024/01/29 03:04:56;;;;;;;1999.90;999.90;;;;;;;4.67;83.20;102413.97;10306436;28;20050;-66
2024/01/29 03:09:58;;;;;;;1999.90;999.90;;;;;;;4.64;83.33;102414.84;10339023;28;20061;-66
2024/01/29 03:15:01;;;;;;;1999.90;999.90;;;;;;;4.31;84.96;102412.47;10338224;28;20054;-66
2024/01/29 03:20:07;;;;;;;1999.90;999.90;;;;;;;4.28;85.96;102415.94;10322404;28;20085;-66
2024/01/29 03:25:10;;;;;;;1999.90;999.90;;;;;;;4.30;85.42;102426.28;10321704;28;20050;-66
2024/01/29 03:30:12;;;;;;;1999.90;999.90;;;;;;;4.21;86.08;102425.47;10338263;28;20054;-66
2024/01/29 03:35:15;;;;;;;1999.90;999.90;;;;;;;4.41;85.91;102414.16;10321323;28;20054;-66
2024/01/29 03:40:17;;;;;;;1999.90;999.90;;;;;;;4.24;86.48;102414.25;10338283;28;20125;-63
2024/01/29 03:45:20;;;;;;;1999.90;999.90;;;;;;;3.95;88.52;102424.72;10337504;28;20405;-63
2024/01/29 03:50:22;;;;;;;1999.90;999.90;;;;;;;3.89;89.28;102421.28;10337338;28;20147;-63
2024/01/29 03:55:24;;;;;;;1999.90;999.90;;;;;;;3.89;90.07;102431.66;10337691;28;20471;-63
2024/01/29 04:00:29;;;;;;;1999.90;999.90;;;;;;;3.62;91.18;102426.56;10320280;28;20061;-63
2024/01/29 04:05:31;;;;;;;1999.90;999.90;;;;;;;3.98;90.71;102430.75;10336753;28;20483;-63
2024/01/29 04:10:34;;;;;;;1999.90;999.90;;;;;;;3.75;90.95;102430.84;10319367;28;20090;-63
2024/01/29 04:15:36;;;;;;;1999.90;999.90;;;;;;;3.74;91.15;102436.88;10337036;28;20042;-63
2024/01/29 04:20:39;;;;;;;1999.90;999.90;;;;;;;3.72;90.99;102430.84;10336185;28;20478;-63
2024/01/29 04:25:41;;;;;;;1999.90;999.90;;;;;;;3.77;91.57;102436.03;10336549;28;20058;-63
2024/01/29 04:30:43;;;;;;;1999.90;999.90;;;;;;;3.35;93.67;102428.31;10336370;28;20054;-63
2024/01/29 04:35:46;;;;;;;1999.90;999.90;;;;;;;3.49;93.39;102433.47;10336268;28;20093;-63
2024/01/29 04:40:48;;;;;;;1999.90;999.90;;;;;;;3.16;96.87;102437.81;10334644;28;20572;-63
2024/01/29 04:45:50;;;;;;;1999.90;999.90;;;;;;;3.20;97.64;102438.69;10335119;28;20050;-63
2024/01/29 04:50:53;;;;;;;1999.90;999.90;;;;;;;3.25;98.36;102437.81;10335664;28;20046;-63
2024/01/29 04:55:55;;;;;;;1999.90;999.90;;;;;;;3.31;98.06;102431.75;10334873;28;20086;-63
2024/01/29 05:00:59;;;;;;;1999.90;999.90;;;;;;;3.37;97.51;102436.94;10318202;28;20073;-63
2024/01/29 05:06:02;;;;;;;1999.90;999.90;;;;;;;3.29;98.86;102439.53;10302244;28;20050;-63
2024/01/29 05:11:04;;;;;;;1999.90;999.90;;;;;;;3.16;99.24;102441.28;10334356;28;20141;-63
2024/01/29 05:16:10;;;;;;;1999.90;999.90;;;;;;;3.24;98.29;102446.44;10334900;28;20053;-63
2024/01/29 05:21:12;;;;;;;1999.90;999.90;;;;;;;3.72;94.77;102447.25;10317082;28;20047;-63
2024/01/29 05:26:15;;;;;;;1999.90;999.90;;;;;;;3.30;95.26;102441.25;10334556;28;20049;-63
2024/01/29 05:31:17;;;;;;;1999.90;999.90;;;;;;;3.49;95.68;102441.25;10334540;28;20052;-63
2024/01/29 05:36:19;;;;;;;1999.90;999.90;;;;;;;3.09;97.28;102451.63;10333881;28;20046;-63
2024/01/29 05:41:22;;;;;;;1999.90;999.90;;;;;;;3.37;95.69;102444.72;10333706;28;20058;-63
2024/01/29 05:46:24;;;;;;;1999.90;999.90;;;;;;;3.45;94.78;102435.22;10317038;28;20050;-63
2024/01/29 05:51:26;;;;;;;1999.90;999.90;;;;;;;3.23;95.73;102433.50;10334158;28;20056;-63
2024/01/29 05:56:29;;;;;;;1999.90;999.90;;;;;;;3.14;97.89;102435.25;10341799;28;20505;-63
2024/01/29 06:01:31;;;;;;;1999.90;999.90;;;;;;;3.00;97.77;102444.72;10341571;28;20579;-63
2024/01/29 06:06:34;;;;;;;1999.90;999.90;;;;;;;3.02;99.13;102461.09;10341902;28;20177;-63
2024/01/29 06:11:37;;;;;;;1999.90;999.90;;;;;;;3.13;98.39;102450.78;10341122;28;20070;-63
2024/01/29 06:16:39;;;;;;;1999.90;999.90;;;;;;;3.37;96.97;102451.63;10323766;28;20077;-63
2024/01/29 06:21:45;;;;;;;1999.90;999.90;;;;;;;3.09;98.07;102456.78;10323599;28;20062;-63
2024/01/29 06:26:48;;;;;;;1999.90;999.90;;;;;;;3.20;98.88;102472.34;10341079;28;20077;-63
2024/01/29 06:31:51;;;;;;;1999.90;999.90;;;;;;;3.21;99.50;102469.75;10341014;28;20081;-65
2024/01/29 06:36:56;;;;;;;1999.90;999.90;;;;;;;3.00;99.60;102444.72;10340840;28;20053;-66
2024/01/29 06:41:59;;;;;;;1999.90;999.90;;;;;;;3.09;100.00;102441.25;10340713;28;20138;-66
2024/01/29 06:47:01;;;;;;;1999.90;999.90;;;;;;;3.35;99.94;102451.63;10339680;28;20050;-66
2024/01/29 06:52:04;;;;;;;1999.90;999.90;;;;;;;3.31;100.00;102457.66;10340282;28;20133;-66
2024/01/29 06:57:11;;;;;;;1999.90;999.90;;;;;;;3.22;100.00;102481.81;10340080;28;20047;-66
2024/01/29 07:02:13;;;;;;;1999.90;999.90;;;;;;;3.14;100.00;102474.06;10339896;28;20050;-66
2024/01/29 07:07:15;;;;;;;1999.90;999.90;;;;;;;2.92;100.00;102477.47;10338728;28;20105;-66
2024/01/29 07:12:18;;;;;;;1999.90;999.90;;;;;;;3.10;100.00;102474.91;10338775;28;20062;-63
2024/01/29 07:17:20;;;;;;;1999.90;999.90;;;;;;;3.10;100.00;102487.84;10339384;28;20052;-63
2024/01/29 07:22:24;;;;;;;1999.90;999.90;;;;;;;3.21;100.00;102502.53;10321813;28;20054;-63
2024/01/29 07:27:26;;;;;;;1999.90;999.90;;;;;;;3.00;100.00;102522.34;10338280;28;20554;-63
2024/01/29 07:32:31;;;;;;;1999.90;999.90;;;;;;;2.98;100.00;102527.53;10338740;28;20112;-63
2024/01/29 07:37:34;;;;;;;1999.90;999.90;;;;;;;2.92;100.00;102518.88;10321208;28;20461;-63
2024/01/29 07:42:37;;;;;;;1999.90;999.90;;;;;;;3.37;100.00;102518.94;10337729;28;20509;-63
2024/01/29 07:47:39;;;;;;;1999.90;999.90;;;;;;;3.46;100.00;102526.69;10320870;28;20057;-63
2024/01/29 07:52:42;;;;;;;1999.90;999.90;;;;;;;3.74;100.00;102518.94;10337933;28;20077;-63
2024/01/29 07:57:44;;;;;;;1999.90;999.90;;;;;;;4.19;99.84;102523.13;10337740;28;20097;-63
2024/01/29 08:02:46;;;;;;;1999.90;999.90;;;;;;;4.28;98.76;102509.28;10320352;28;20101;-63
2024/01/29 08:07:49;;;;;;;1999.90;999.90;;;;;;;5.28;94.19;102515.63;10319859;28;20046;-63
2024/01/29 08:12:51;;;;;;;1999.90;999.90;;;;;;;4.82;94.00;102515.09;10337255;28;20065;-63
2024/01/29 08:17:55;;;;;;;1999.90;999.90;;;;;;;5.34;91.50;102513.00;10319169;28;20470;-63
2024/01/29 08:22:58;;;;;;;1999.90;999.90;;;;;;;5.84;89.57;102511.66;10336157;28;20383;-63
2024/01/29 08:28:01;;;;;;;1999.90;999.90;;;;;;;6.48;85.54;102517.06;10335928;28;20133;-64
2024/01/29 08:33:03;;;;;;;1999.90;999.90;;;;;;;7.90;80.72;102518.31;10335776;28;20594;-64
2024/01/29 08:38:06;;;;;;;1999.90;999.90;;;;;;;9.00;77.78;102531.75;10336158;28;20100;-64
2024/01/29 08:43:10;;;;;;;1999.90;999.90;;;;;;;8.46;76.34;102535.53;10336007;28;20050;-64
2024/01/29 08:48:13;;;;;;;1999.90;999.90;;;;;;;8.85;74.78;102535.56;10335706;28;20050;-64
2024/01/29 08:53:15;;;;;;;1999.90;999.90;;;;;;;9.96;71.67;102520.59;10335328;28;20490;-64
2024/01/29 08:58:21;;;;;;;1999.90;999.90;;;;;;;9.84;72.71;102529.63;10319166;28;20080;-64
2024/01/29 09:03:27;;;;;;;1999.90;999.90;;;;;;;9.61;73.36;102522.38;10335287;28;20065;-64
2024/01/29 09:08:31;;;;;;;1999.90;999.90;;;;;;;9.62;71.55;102512.78;10334776;28;20059;-64
2024/01/29 09:13:33;;;;;;;1999.90;999.90;;;;;;;9.60;74.69;102533.75;10334971;28;20125;-64
2024/01/29 09:18:35;;;;;;;1999.90;999.90;;;;;;;9.43;72.36;102518.50;10334906;28;20046;-64
2024/01/29 09:23:38;;;;;;;1999.90;999.90;;;;;;;9.47;72.10;102520.13;10334772;28;20050;-64
2024/01/29 09:28:43;;;;;;;1999.90;999.90;;;;;;;9.24;72.71;102525.06;10317131;28;20050;-64
2024/01/29 09:33:45;;;;;;;1999.90;999.90;;;;;;;9.75;71.67;102519.44;10317053;28;20137;-64
2024/01/29 09:38:48;;;;;;;1999.90;999.90;;;;;;;10.09;70.66;102518.50;10334490;28;20104;-64
2024/01/29 09:43:54;;;;;;;1999.90;999.90;;;;;;;11.19;71.25;102517.88;10333788;28;20406;-65
2024/01/29 09:48:57;;;;;;;1999.90;999.90;;;;;;;11.63;69.44;102503.28;10316500;28;20489;-65
2024/01/29 09:54:05;;;;;;;1999.90;999.90;;;;;;;12.06;66.29;102508.78;10317072;28;20100;-65
2024/01/29 09:59:07;;;;;;;1999.90;999.90;;;;;;;13.43;63.77;102508.72;10334120;28;20050;-65
2024/01/29 10:04:09;;;;;;;1999.90;999.90;;;;;;;14.25;61.83;102511.25;10316728;28;20056;-65
2024/01/29 10:09:12;;;;;;;1999.90;999.90;;;;;;;14.25;61.69;102519.16;10333102;28;20064;-65
2024/01/29 10:14:16;;;;;;;1999.90;999.90;;;;;;;15.18;59.39;102520.97;10333778;28;20054;-65
2024/01/29 10:19:18;;;;;;;1999.90;999.90;;;;;;;13.88;62.47;102523.44;10315821;28;20082;-65
2024/01/29 10:24:21;;;;;;;1999.90;999.90;;;;;;;16.50;56.50;102533.53;10332930;28;20046;-65
2024/01/29 10:29:23;;;;;;;1999.90;999.90;;;;;;;15.82;56.41;102537.16;10333551;28;20084;-65
2024/01/29 10:34:25;;;;;;;1999.90;999.90;;;;;;;13.28;60.97;102560.16;10332862;28;20506;-66
2024/01/29 10:39:34;;;;;;;1999.90;999.90;;;;;;;11.48;65.34;102572.84;10334323;28;20414;-66
2024/01/29 10:44:44;;;;;;;1999.90;999.90;;;;;;;11.94;65.09;102564.38;10324865;28;20050;-65
2024/01/29 10:49:47;;;;;;;1999.90;999.90;;;;;;;11.80;65.46;102563.03;10323214;28;20050;-65
2024/01/29 10:54:51;;;;;;;1999.90;999.90;;;;;;;11.93;67.39;102557.38;10322496;28;20482;-65
2024/01/29 10:59:54;;;;;;;1999.90;999.90;;;;;;;12.14;64.92;102563.63;10340074;28;20113;-66
2024/01/29 11:04:56;;;;;;;1999.90;999.90;;;;;;;11.53;67.52;102565.69;10321952;28;20397;-66
2024/01/29 11:10:15;;;;;;;1999.90;999.90;;;;;;;10.87;70.75;102559.06;10338891;28;20494;-65
2024/01/29 11:15:18;;;;;;;1999.90;999.90;;;;;;;11.59;67.14;102558.53;10321614;28;20490;-65
2024/01/29 11:20:23;;;;;;;1999.90;999.90;;;;;;;11.90;68.91;102551.31;10322139;28;20050;-65
2024/01/29 11:25:27;;;;;;;1999.90;999.90;;;;;;;12.91;63.21;102566.91;10321804;28;20050;-66
2024/01/29 11:30:29;;;;;;;1999.90;999.90;;;;;;;16.67;57.07;102544.00;10321910;28;20051;-66
2024/01/29 11:35:34;;;;;;;1999.90;999.90;;;;;;;17.16;55.17;102539.56;10321560;28;20138;-66
2024/01/29 11:40:47;;;;;;;1999.90;999.90;;;;;;;14.12;59.62;102549.59;10337925;28;20106;-66
2024/01/29 11:45:57;;;;;;;1999.90;999.90;;;;;;;13.38;62.69;102553.66;10338142;28;20137;-66
2024/01/29 11:50:59;;;;;;;1999.90;999.90;;;;;;;12.90;65.86;102545.94;10337830;28;20096;-66
2024/01/29 11:56:02;;;;;;;1999.90;999.90;;;;;;;12.93;64.47;102548.44;10337259;28;20116;-66
2024/01/29 12:01:04;;;;;;;1999.90;999.90;;;;;;;12.17;66.97;102540.78;10319941;28;20062;-66
2024/01/29 12:06:07;;;;;;;1999.90;999.90;;;;;;;11.29;69.79;102542.88;10319687;28;20088;-66
2024/01/29 12:11:12;;;;;;;1999.90;999.90;;;;;;;11.83;69.46;102531.41;10319501;28;20068;-66
2024/01/29 12:16:15;;;;;;;1999.90;999.90;;;;;;;12.10;68.74;102527.91;10304291;28;20054;-66
2024/01/29 12:21:18;;;;;;;1999.90;999.90;;;;;;;11.80;69.34;102530.66;10319670;28;20050;-66
2024/01/29 12:26:30;;;;;;;1999.90;999.90;;;;;;;11.80;69.89;102534.19;10336609;28;20125;-66
2024/01/29 12:31:36;;;;;;;1999.90;999.90;;;;;;;11.90;69.19;102532.06;10319349;28;20137;-66
2024/01/29 12:36:38;;;;;;;1999.90;999.90;;;;;;;11.47;71.45;102531.78;10336306;28;20121;-66
2024/01/29 12:41:42;;;;;;;1999.90;999.90;;;;;;;11.35;71.82;102526.97;10336128;28;20056;-66
2024/01/29 12:46:54;;;;;;;1999.90;999.90;;;;;;;11.71;71.33;102529.22;10318468;28;20126;-66
2024/01/29 12:51:56;;;;;;;1999.90;999.90;;;;;;;11.46;72.21;102523.97;10317541;28;20058;-66
2024/01/29 12:56:59;;;;;;;1999.90;999.90;;;;;;;11.75;71.99;102527.34;10335008;28;20054;-66
2024/01/29 13:02:02;;;;;;;1999.90;999.90;;;;;;;11.91;71.94;102528.56;10334134;28;20082;-66
2024/01/29 13:07:05;;;;;;;1999.90;999.90;;;;;;;12.17;70.81;102527.66;10334466;28;20046;-66
2024/01/29 13:12:08;;;;;;;1999.90;999.90;;;;;;;11.77;70.33;102533.41;10333775;28;20062;-65
2024/01/29 13:17:10;;;;;;;1999.90;999.90;;;;;;;11.57;71.96;102534.97;10317038;28;20082;-66
2024/01/29 13:22:13;;;;;;;1999.90;999.90;;;;;;;12.15;72.11;102529.44;10316578;28;20519;-66
2024/01/29 13:27:16;;;;;;;1999.90;999.90;;;;;;;11.68;72.08;102535.47;10334323;28;20046;-66
2024/01/29 13:32:19;;;;;;;1999.90;999.90;;;;;;;11.94;73.00;102527.63;10333330;28;20519;-66
2024/01/29 13:37:21;;;;;;;1999.90;999.90;;;;;;;12.03;72.86;102525.50;10333326;28;20046;-66
2024/01/29 13:42:23;;;;;;;1999.90;999.90;;;;;;;11.48;73.58;102524.75;10333342;28;20050;-66
2024/01/29 13:47:27;;;;;;;1999.90;999.90;;;;;;;11.76;73.41;102523.84;10332981;28;20141;-66
2024/01/29 13:52:29;;;;;;;1999.90;999.90;;;;;;;11.95;72.14;102521.44;10332996;28;20050;-66
2024/01/29 13:57:32;;;;;;;1999.90;999.90;;;;;;;12.15;72.41;102526.81;10316409;28;20057;-66
2024/01/29 14:02:34;;;;;;;1999.90;999.90;;;;;;;11.89;72.65;102527.75;10316217;28;20089;-66
2024/01/29 14:07:38;;;;;;;1999.90;999.90;;;;;;;11.60;73.56;102528.72;10316226;28;20130;-66
2024/01/29 14:12:40;;;;;;;1999.90;999.90;;;;;;;11.76;74.83;102522.06;10316346;28;20490;-66
2024/01/29 14:17:43;;;;;;;1999.90;999.90;;;;;;;11.81;73.92;102525.38;10339771;28;20073;-66
2024/01/29 14:22:45;;;;;;;1999.90;999.90;;;;;;;11.49;75.41;102522.09;10349074;23;20367;-67
2024/01/29 14:27:47;;;;;;;1999.90;999.90;;;;;;;11.52;75.54;102526.38;10323264;28;20489;-68
2024/01/29 14:32:50;;;;;;;1999.90;999.90;;;;;;;11.35;75.80;102524.34;10341032;28;20137;-68
2024/01/29 14:37:52;;;;;;;1999.90;999.90;;;;;;;11.06;78.05;102515.66;10340872;28;20051;-67
2024/01/29 14:42:55;;;;;;;1999.90;999.90;;;;;;;11.34;77.52;102517.34;10323524;28;20061;-68
2024/01/29 14:47:57;;;;;;;1999.90;999.90;;;;;;;11.21;78.46;102516.03;10339768;28;20060;-68
2024/01/29 14:53:00;;;;;;;1999.90;999.90;;;;;;;11.24;77.15;102513.31;10339679;28;20414;-68
2024/01/29 14:58:02;;;;;;;1999.90;999.90;;;;;;;11.19;78.55;102505.59;10339447;28;20046;-67
2024/01/29 15:03:05;;;;;;;1999.90;999.90;;;;;;;10.87;80.55;102511.88;10339875;28;20054;-68
2024/01/29 15:08:08;;;;;;;1999.90;999.90;;;;;;;10.96;80.35;102517.69;10322489;28;20077;-68
2024/01/29 15:13:10;;;;;;;1999.90;999.90;;;;;;;10.66;82.38;102518.63;10322286;28;20077;-68
2024/01/29 15:18:13;;;;;;;1999.90;999.90;;;;;;;10.40;83.34;102520.28;10339426;28;20050;-67
2024/01/29 15:23:16;;;;;;;1999.90;999.90;;;;;;;10.34;84.58;102528.28;10338800;28;20054;-67
2024/01/29 15:28:20;;;;;;;1999.90;999.90;;;;;;;10.05;87.29;102524.72;10320670;28;20058;-67
2024/01/29 15:33:23;;;;;;;1999.90;999.90;;;;;;;9.80;87.69;102524.50;10338751;28;20058;-67
2024/01/29 15:38:25;;;;;;;1999.90;999.90;;;;;;;9.92;87.60;102532.06;10338498;28;20050;-67
2024/01/29 15:43:33;;;;;;;1999.90;999.90;;;;;;;9.68;89.06;102538.78;10338321;28;20050;-67
2024/01/29 15:48:35;;;;;;;1999.90;999.90;;;;;;;9.27;90.13;102538.91;10337535;28;20101;-67
2024/01/29 15:53:37;;;;;;;1999.90;999.90;;;;;;;9.11;93.02;102551.50;10320697;28;20078;-67
2024/01/29 15:58:40;;;;;;;1999.90;999.90;;;;;;;8.91;94.20;102554.56;10337086;28;20449;-67
2024/01/29 16:03:43;;;;;;;1999.90;999.90;;;;;;;8.71;95.89;102561.97;10336923;28;20493;-67
2024/01/29 16:08:45;;;;;;;1999.90;999.90;;;;;;;8.55;96.22;102561.44;10337307;28;20183;-67
2024/01/29 16:13:47;;;;;;;1999.90;999.90;;;;;;;8.27;98.22;102566.28;10336548;28;20077;-67
2024/01/29 16:18:50;;;;;;;1999.90;999.90;;;;;;;8.28;99.72;102565.41;10337046;28;20046;-67
2024/01/29 16:23:53;;;;;;;1999.90;999.90;;;;;;;8.10;100.00;102570.13;10303243;28;20054;-67
2024/01/29 16:28:55;;;;;;;1999.90;999.90;;;;;;;7.74;100.00;102577.69;10336472;28;20053;-67
2024/01/29 16:33:57;;;;;;;1999.90;999.90;;;;;;;7.87;100.00;102578.34;10336375;28;20050;-67
2024/01/29 16:39:00;;;;;;;1999.90;999.90;;;;;;;7.97;100.00;102579.06;10317431;28;20057;-67
2024/01/29 16:44:02;;;;;;;1999.90;999.90;;;;;;;7.75;100.00;102574.22;10318818;28;20077;-67
2024/01/29 16:49:05;;;;;;;1999.90;999.90;;;;;;;7.47;100.00;102583.38;10335762;28;20073;-67
2024/01/29 16:54:07;;;;;;;1999.90;999.90;;;;;;;7.60;100.00;102579.69;10334987;28;20485;-67
2024/01/29 16:59:10;;;;;;;1999.90;999.90;;;;;;;7.47;100.00;102576.41;10318287;28;20050;-67
2024/01/29 17:04:12;;;;;;;1999.90;999.90;;;;;;;7.82;100.00;102577.56;10334579;28;20413;-67
2024/01/29 17:09:15;;;;;;;1999.90;999.90;;;;;;;7.65;100.00;102590.00;10335065;28;20043;-67
2024/01/29 17:14:17;;;;;;;1999.90;999.90;;;;;;;7.48;100.00;102582.47;10335023;28;20129;-67
2024/01/29 17:19:22;;;;;;;1999.90;999.90;;;;;;;7.35;100.00;102593.09;10334824;28;20048;-67
2024/01/29 17:24:25;;;;;;;1999.90;999.90;;;;;;;7.27;100.00;102586.28;10333742;28;20078;-67
2024/01/29 17:29:30;;;;;;;1999.90;999.90;;;;;;;7.43;100.00;102596.44;10332820;28;20046;-67
2024/01/29 17:34:33;;;;;;;1999.90;999.90;;;;;;;7.36;100.00;102596.53;10334526;28;20064;-67
2024/01/29 17:39:37;;;;;;;1999.90;999.90;;;;;;;7.44;100.00;102598.16;10333749;28;20046;-67
2024/01/29 17:44:40;;;;;;;1999.90;999.90;;;;;;;7.38;100.00;102595.66;10334251;28;20108;-67
2024/01/29 17:49:42;;;;;;;1999.90;999.90;;;;;;;7.42;100.00;102599.06;10337882;28;20073;-67
2024/01/29 17:54:45;;;;;;;1999.90;999.90;;;;;;;7.37;100.00;102600.88;10341738;28;20413;-67
2024/01/29 17:59:48;;;;;;;1999.90;999.90;;;;;;;7.34;100.00;102598.31;10324293;28;20077;-67
2024/01/29 18:04:50;;;;;;;1999.90;999.90;;;;;;;7.28;100.00;102601.91;10341358;28;20409;-67
2024/01/29 18:09:52;;;;;;;1999.90;999.90;;;;;;;7.34;100.00;102601.78;10341974;28;20054;-67
2024/01/29 18:14:55;;;;;;;1999.90;999.90;;;;;;;7.37;100.00;102598.28;10341206;28;20552;-67
2024/01/29 18:19:57;;;;;;;1999.90;999.90;;;;;;;7.54;100.00;102603.22;10323818;28;20047;-67
2024/01/29 18:25:00;;;;;;;1999.90;999.90;;;;;;;7.40;100.00;102591.28;10340579;28;20521;-68
2024/01/29 18:30:03;;;;;;;1999.90;999.90;;;;;;;7.37;100.00;102595.69;10340514;28;20554;-67
2024/01/29 18:35:06;;;;;;;1999.90;999.90;;;;;;;7.46;100.00;102597.28;10341005;28;20054;-67
2024/01/29 18:40:09;;;;;;;1999.90;999.90;;;;;;;7.42;100.00;102599.06;10323752;28;20054;-67
2024/01/29 18:45:12;;;;;;;1999.90;999.90;;;;;;;7.50;100.00;102599.81;10322964;28;20054;-67
2024/01/29 18:50:14;;;;;;;1999.90;999.90;;;;;;;7.34;100.00;102599.19;10323094;28;20121;-67
2024/01/29 18:55:17;;;;;;;1999.90;999.90;;;;;;;7.40;100.00;102595.63;10339594;28;20489;-67
2024/01/29 19:00:20;;;;;;;1999.90;999.90;;;;;;;7.62;100.00;102591.78;10321030;28;20445;-67
2024/01/29 19:05:22;;;;;;;1999.90;999.90;;;;;;;7.82;100.00;102586.25;10339838;28;20046;-67
2024/01/29 19:10:24;;;;;;;1999.90;999.90;;;;;;;7.91;100.00;102587.81;10339583;28;20133;-67
2024/01/29 19:15:29;;;;;;;1999.90;999.90;;;;;;;7.92;100.00;102586.09;10322386;28;20097;-67
2024/01/29 19:20:31;;;;;;;1999.90;999.90;;;;;;;8.07;100.00;102582.31;10322341;28;20130;-67
2024/01/29 19:25:34;;;;;;;1999.90;999.90;;;;;;;7.94;100.00;102579.09;10321376;28;20062;-67
2024/01/29 19:30:37;;;;;;;1999.90;999.90;;;;;;;7.91;100.00;102581.75;10321848;28;20060;-67
2024/01/29 19:35:39;;;;;;;1999.90;999.90;;;;;;;7.99;100.00;102578.13;10338100;28;20161;-67
2024/01/29 19:40:42;;;;;;;1999.90;999.90;;;;;;;8.01;100.00;102572.88;10338462;28;20055;-67
2024/01/29 19:45:44;;;;;;;1999.90;999.90;;;;;;;8.09;100.00;102577.97;10337615;28;20394;-67
2024/01/29 19:50:47;;;;;;;1999.90;999.90;;;;;;;7.95;100.00;102581.69;10338118;28;20132;-67
2024/01/29 19:55:50;;;;;;;1999.90;999.90;;;;;;;7.84;100.00;102586.22;10320878;28;20058;-67
2024/01/29 20:00:52;;;;;;;1999.90;999.90;;;;;;;7.92;100.00;102579.13;10337739;28;20061;-67
2024/01/29 20:05:56;;;;;;;1999.90;999.90;;;;;;;7.92;100.00;102589.56;10337399;28;20062;-67
2024/01/29 20:10:58;;;;;;;1999.90;999.90;;;;;;;7.83;100.00;102589.69;10337123;28;20055;-67
2024/01/29 20:16:03;;;;;;;1999.90;999.90;;;;;;;7.75;100.00;102592.47;10336529;28;20497;-67
2024/01/29 20:21:12;;;;;;;1999.90;999.90;;;;;;;7.72;100.00;102589.91;10336912;28;20058;-67
2024/01/29 20:26:14;;;;;;;1999.90;999.90;;;;;;;7.49;100.00;102581.59;10336113;28;20062;-67
2024/01/29 20:31:27;;;;;;;1999.90;999.90;;;;;;;7.29;100.00;102577.53;10335875;28;20133;-67
2024/01/29 20:36:31;;;;;;;1999.90;999.90;;;;;;;7.00;100.00;102581.44;10319143;28;20125;-67
2024/01/29 20:41:38;;;;;;;1999.90;999.90;;;;;;;7.10;100.00;102578.72;10336125;28;20051;-67
2024/01/29 20:46:48;;;;;;;1999.90;999.90;;;;;;;7.17;100.00;102582.94;10319708;28;20054;-67
2024/01/29 20:51:50;;;;;;;1999.90;999.90;;;;;;;7.27;100.00;102578.47;10335764;28;20050;-67
2024/01/29 20:56:56;;;;;;;1999.90;999.90;;;;;;;7.30;100.00;102575.81;10335603;28;20082;-68
2024/01/29 21:01:58;;;;;;;1999.90;999.90;;;;;;;7.46;100.00;102572.06;10318739;28;20050;-67
2024/01/29 21:07:02;;;;;;;1999.90;999.90;;;;;;;7.39;100.00;102557.41;10318017;28;20049;-67
2024/01/29 21:12:06;;;;;;;1999.90;999.90;;;;;;;7.41;100.00;102569.56;10335025;28;20054;-67
2024/01/29 21:17:08;;;;;;;1999.90;999.90;;;;;;;7.25;100.00;102581.94;10334922;28;20113;-67
2024/01/29 21:22:12;;;;;;;1999.90;999.90;;;;;;;7.32;100.00;102571.44;10333848;28;20129;-67
2024/01/29 21:27:14;;;;;;;1999.90;999.90;;;;;;;7.50;100.00;102578.09;10316542;28;20058;-67
2024/01/29 21:32:17;;;;;;;1999.90;999.90;;;;;;;7.50;100.00;102568.53;10317261;28;20085;-67
2024/01/29 21:37:20;;;;;;;1999.90;999.90;;;;;;;7.67;100.00;102573.47;10317210;28;20130;-68
2024/01/29 21:42:22;;;;;;;1999.90;999.90;;;;;;;7.47;100.00;102568.59;10301066;28;20050;-68
2024/01/29 21:47:25;;;;;;;1999.90;999.90;;;;;;;7.65;100.00;102571.75;10316935;28;20057;-68
2024/01/29 21:52:28;;;;;;;1999.90;999.90;;;;;;;7.52;100.00;102566.75;10334192;28;20129;-68
2024/01/29 21:57:30;;;;;;;1999.90;999.90;;;;;;;7.67;100.00;102559.59;10333451;28;20503;-68
2024/01/29 22:02:32;;;;;;;1999.90;999.90;;;;;;;7.49;100.00;102571.16;10316750;28;20054;-68